createdAt,value
2023-04-23T00:04:14.194Z,10.25
2023-04-23T00:09:17.695Z,10.17
2023-04-23T00:14:20.597Z,10.08
2023-04-23T00:19:24.133Z,10.02
2023-04-23T00:24:26.804Z,9.98
2023-04-23T00:29:29.478Z,9.93
2023-04-23T00:34:32.449Z,9.90
2023-04-23T00:39:37.674Z,9.85
2023-04-23T00:44:42.069Z,9.79
2023-04-23T00:49:45.609Z,9.71
2023-04-23T00:54:48.457Z,9.61
2023-04-23T00:59:51.244Z,9.54
2023-04-23T01:04:55.265Z,9.48
2023-04-23T01:09:57.966Z,9.41
2023-04-23T01:15:00.847Z,9.36
2023-04-23T01:20:06.335Z,9.32
2023-04-23T01:25:10.290Z,9.30
2023-04-23T01:30:13.576Z,9.27
2023-04-23T01:35:16.332Z,9.25
2023-04-23T01:40:20.915Z,9.23
2023-04-23T01:45:23.623Z,9.17
2023-04-23T01:50:27.930Z,9.13
2023-04-23T01:55:31.590Z,9.10
2023-04-23T02:00:34.268Z,9.04
2023-04-23T02:05:40.620Z,8.97
2023-04-23T02:10:43.552Z,8.91
2023-04-23T02:15:46.360Z,8.87
2023-04-23T02:20:49.475Z,8.81
2023-04-23T02:25:52.564Z,8.81
2023-04-23T02:30:55.315Z,8.80
2023-04-23T02:35:58.485Z,8.78
2023-04-23T02:41:01.153Z,8.75
2023-04-23T02:46:09.631Z,8.73
2023-04-23T02:51:13.304Z,8.70
2023-04-23T02:56:16.001Z,8.66
2023-04-23T03:01:19.163Z,8.63
2023-04-23T03:06:21.903Z,8.60
2023-04-23T03:11:24.552Z,8.57
2023-04-23T03:16:28.520Z,8.52
2023-04-23T03:21:31.476Z,8.45
2023-04-23T03:26:34.839Z,8.40
2023-04-23T03:31:37.630Z,8.38
2023-04-23T03:36:40.825Z,8.40
2023-04-23T03:41:43.511Z,8.42
2023-04-23T03:46:46.190Z,8.44
2023-04-23T03:51:48.867Z,8.45
2023-04-23T03:56:51.509Z,8.47
2023-04-23T04:01:54.180Z,8.51
2023-04-23T04:06:57.822Z,8.53
2023-04-23T04:12:00.563Z,8.54
2023-04-23T04:17:03.283Z,8.57
2023-04-23T04:22:06.996Z,8.61
2023-04-23T04:27:09.907Z,8.69
2023-04-23T04:32:13.841Z,8.79
2023-04-23T04:37:17.247Z,8.91
2023-04-23T04:42:20.327Z,9.01
2023-04-23T04:47:23.010Z,9.12
2023-04-23T04:52:25.906Z,9.22
2023-04-23T04:57:28.791Z,9.32
2023-04-23T05:02:31.703Z,9.44
2023-04-23T05:07:34.572Z,9.59
2023-04-23T05:12:41.364Z,9.76
2023-04-23T05:17:44.113Z,9.94
2023-04-23T05:22:47.036Z,10.15
2023-04-23T05:27:49.813Z,10.37
2023-04-23T05:32:53.229Z,10.63
2023-04-23T05:37:56.788Z,10.90
2023-04-23T05:42:59.882Z,11.17
2023-04-23T05:48:02.677Z,11.47
2023-04-23T05:53:05.500Z,11.79
2023-04-23T05:58:08.226Z,12.08
2023-04-23T06:03:11.087Z,12.37
2023-04-23T06:08:13.854Z,12.68
2023-04-23T06:13:16.536Z,13.03
2023-04-23T06:18:19.255Z,13.42
2023-04-23T06:23:21.934Z,13.81
2023-04-23T06:28:24.924Z,14.22
2023-04-23T06:33:27.579Z,14.64
2023-04-23T06:38:30.310Z,15.03
2023-04-23T06:43:33.328Z,15.41
2023-04-23T06:48:38.413Z,15.79
2023-04-23T06:53:41.089Z,16.17
2023-04-23T06:58:43.736Z,16.52
2023-04-23T07:03:49.301Z,16.88
2023-04-23T07:08:52.103Z,17.25
2023-04-23T07:13:54.821Z,17.59
2023-04-23T07:18:57.542Z,17.93
2023-04-23T07:24:00.865Z,18.25
2023-04-23T07:29:07.799Z,18.50
2023-04-23T07:34:10.596Z,18.84
2023-04-23T07:39:13.424Z,19.16
2023-04-23T07:44:16.245Z,19.44
2023-04-23T07:49:18.927Z,19.68
2023-04-23T07:54:22.036Z,19.93
2023-04-23T07:59:25.444Z,20.14
2023-04-23T08:04:28.286Z,20.31
2023-04-23T08:09:31.232Z,20.47
2023-04-23T08:14:33.866Z,20.63
2023-04-23T08:19:36.572Z,20.84
2023-04-23T08:24:39.280Z,21.01
2023-04-23T08:29:42.143Z,21.13
2023-04-23T08:34:44.965Z,21.30
2023-04-23T08:39:47.662Z,21.54
2023-04-23T08:44:53.253Z,21.76
2023-04-23T08:49:59.263Z,21.93
2023-04-23T08:55:04.753Z,22.09
2023-04-23T09:00:10.977Z,22.24
2023-04-23T09:05:14.390Z,22.35
2023-04-23T09:10:18.641Z,22.44
2023-04-23T09:15:22.365Z,22.62
2023-04-23T09:20:25.446Z,22.77
2023-04-23T09:25:28.195Z,22.93
2023-04-23T09:30:31.389Z,23.11
2023-04-23T09:35:35.947Z,23.13
2023-04-23T09:40:38.843Z,23.18
2023-04-23T09:45:49.427Z,23.40
2023-04-23T09:50:55.797Z,23.50
2023-04-23T09:55:58.558Z,23.64
2023-04-23T10:01:09.502Z,23.72
2023-04-23T10:06:37.063Z,23.85
2023-04-23T10:11:41.718Z,23.97
2023-04-23T10:16:49.320Z,24.14
2023-04-23T10:22:02.532Z,24.28
2023-04-23T10:27:28.447Z,24.40
2023-04-23T10:32:41.304Z,24.42
2023-04-23T10:37:45.927Z,24.39
2023-04-23T10:42:49.691Z,24.37
2023-04-23T10:47:55.539Z,24.41
2023-04-23T10:52:58.818Z,24.57
2023-04-23T10:58:07.403Z,24.65
2023-04-23T11:03:31.211Z,24.73
2023-04-23T11:08:37.924Z,24.90
2023-04-23T11:13:53.352Z,24.91
2023-04-23T11:18:55.934Z,25.02
2023-04-23T11:24:02.180Z,25.08
2023-04-23T11:29:07.308Z,25.15
2023-04-23T11:34:12.007Z,25.27
2023-04-23T11:39:15.088Z,25.46
2023-04-23T11:44:19.234Z,25.58
2023-04-23T11:49:22.192Z,25.73
2023-04-23T11:54:29.587Z,25.79
2023-04-23T11:59:32.417Z,25.90
2023-04-23T12:04:35.073Z,26.00
2023-04-23T12:09:38.331Z,26.06
2023-04-23T12:14:40.998Z,25.87
2023-04-23T12:19:44.915Z,25.75
2023-04-23T12:24:51.493Z,25.77
2023-04-23T12:30:01.072Z,25.58
2023-04-23T12:35:07.215Z,25.66
2023-04-23T12:40:10.676Z,25.80
2023-04-23T12:45:13.401Z,25.89
2023-04-23T12:50:16.227Z,25.90
2023-04-23T12:55:19.015Z,25.95
2023-04-23T13:00:22.730Z,26.03
2023-04-23T13:05:25.422Z,26.04
2023-04-23T13:10:30.882Z,25.89
2023-04-23T13:15:33.619Z,25.87
2023-04-23T13:20:36.352Z,25.85
2023-04-23T13:25:39.031Z,25.78
2023-04-23T13:30:41.754Z,25.86
2023-04-23T13:35:44.515Z,25.96
2023-04-23T13:40:47.170Z,25.91
2023-04-23T13:45:50.171Z,25.97
2023-04-23T13:50:52.874Z,25.85
2023-04-23T13:55:56.672Z,25.84
2023-04-23T14:00:59.377Z,25.71
2023-04-23T14:06:02.958Z,25.94
2023-04-23T14:11:05.688Z,26.23
2023-04-23T14:16:08.372Z,26.00
2023-04-23T14:21:11.160Z,25.71
2023-04-23T14:26:44.903Z,25.89
2023-04-23T14:31:51.769Z,26.26
2023-04-23T14:36:54.563Z,26.10
2023-04-23T14:41:57.339Z,25.92
2023-04-23T14:47:00.039Z,26.27
2023-04-23T14:52:03.561Z,26.61
2023-04-23T14:57:06.365Z,26.71
2023-04-23T15:02:09.287Z,27.15
2023-04-23T15:07:12.121Z,27.40
2023-04-23T15:12:56.754Z,27.49
2023-04-23T15:17:59.570Z,27.75
2023-04-23T15:23:02.301Z,27.74
2023-04-23T15:28:05.940Z,27.88
2023-04-23T15:33:08.609Z,28.17
2023-04-23T15:38:11.257Z,28.59
2023-04-23T15:43:14.003Z,28.95
2023-04-23T15:48:16.721Z,29.04
2023-04-23T15:53:23.033Z,29.33
2023-04-23T15:58:25.720Z,29.40
2023-04-23T16:03:28.779Z,28.97
2023-04-23T16:09:06.762Z,28.25
2023-04-23T16:14:10.126Z,27.17
2023-04-23T16:19:12.836Z,26.41
2023-04-23T16:24:17.258Z,25.84
2023-04-23T16:29:22.778Z,25.45
2023-04-23T16:34:25.886Z,25.08
2023-04-23T16:39:28.626Z,24.72
2023-04-23T16:44:31.280Z,24.35
2023-04-23T16:49:34.018Z,24.06
2023-04-23T16:54:36.819Z,23.72
2023-04-23T16:59:40.829Z,23.44
2023-04-23T17:04:43.842Z,23.21
2023-04-23T17:09:46.966Z,22.97
2023-04-23T17:14:49.775Z,22.71
2023-04-23T17:19:52.443Z,22.42
2023-04-23T17:24:55.247Z,22.18
2023-04-23T17:29:58.101Z,21.95
2023-04-23T17:35:09.488Z,21.78
2023-04-23T17:40:13.498Z,21.60
2023-04-23T17:45:17.362Z,21.42
2023-04-23T17:50:20.023Z,21.23
2023-04-23T17:55:23.274Z,21.07
2023-04-23T18:00:28.683Z,20.92
2023-04-23T18:05:31.432Z,20.79
2023-04-23T18:10:34.228Z,20.67
2023-04-23T18:15:37.288Z,20.54
2023-04-23T18:20:40.212Z,20.43
2023-04-23T18:25:43.074Z,20.31
2023-04-23T18:30:45.958Z,20.19
2023-04-23T18:35:48.729Z,20.06
2023-04-23T18:40:51.774Z,19.87
2023-04-23T18:45:54.466Z,19.63
2023-04-23T18:50:57.917Z,19.50
2023-04-23T18:56:01.389Z,19.42
2023-04-23T19:01:04.122Z,19.36
2023-04-23T19:06:07.948Z,19.27
2023-04-23T19:11:10.999Z,19.17
2023-04-23T19:16:16.313Z,19.06
2023-04-23T19:21:19.131Z,18.96
2023-04-23T19:26:21.792Z,18.85
2023-04-23T19:31:24.899Z,18.75
2023-04-23T19:36:27.665Z,18.66
2023-04-23T19:41:30.422Z,18.61
2023-04-23T19:46:33.178Z,18.61
2023-04-23T19:51:38.122Z,18.59
2023-04-23T19:56:40.827Z,18.56
2023-04-23T20:01:43.532Z,18.54
2023-04-23T20:06:46.308Z,18.46
2023-04-23T20:11:49.032Z,18.40
2023-04-23T20:16:51.840Z,18.39
2023-04-23T20:21:54.626Z,18.36
2023-04-23T20:26:58.685Z,18.34
2023-04-23T20:32:01.519Z,18.33
2023-04-23T20:37:04.452Z,18.32
2023-04-23T20:42:08.780Z,18.29
2023-04-23T20:47:11.671Z,18.26
2023-04-23T20:52:15.350Z,18.20
2023-04-23T20:57:18.037Z,18.15
2023-04-23T21:02:20.832Z,18.06
2023-04-23T21:07:23.550Z,17.97
2023-04-23T21:12:26.400Z,17.87
2023-04-23T21:17:29.128Z,17.78
2023-04-23T21:22:31.791Z,17.71
2023-04-23T21:27:34.514Z,17.64
2023-04-23T21:32:37.301Z,17.56
2023-04-23T21:37:40.009Z,17.51
2023-04-23T21:42:45.589Z,17.49
2023-04-23T21:47:48.493Z,17.45
2023-04-23T21:52:56.113Z,17.39
2023-04-23T21:58:15.763Z,17.38
2023-04-23T22:03:25.591Z,17.32
2023-04-23T22:08:41.486Z,17.23
2023-04-23T22:13:44.179Z,17.13
2023-04-23T22:18:47.121Z,17.04
2023-04-23T22:23:49.837Z,16.94
2023-04-23T22:28:52.534Z,16.82
2023-04-23T22:33:55.234Z,16.70
2023-04-23T22:38:57.936Z,16.61
2023-04-23T22:44:00.902Z,16.55
2023-04-23T22:49:04.598Z,16.49
2023-04-23T22:54:07.266Z,16.45
2023-04-23T22:59:12.941Z,16.45
2023-04-23T23:04:16.526Z,16.46
2023-04-23T23:09:19.191Z,16.47
2023-04-23T23:14:22.773Z,16.48
2023-04-23T23:19:27.252Z,16.48
2023-04-23T23:24:29.944Z,16.46
2023-04-23T23:29:32.606Z,16.42
2023-04-23T23:34:35.362Z,16.37
2023-04-23T23:39:38.030Z,16.27
2023-04-23T23:44:40.948Z,16.16
2023-04-23T23:49:44.088Z,16.05
2023-04-23T23:54:47.091Z,15.91
2023-04-23T23:59:49.858Z,15.72
